Time;durP1;ratioP1;P1;durP2;ratioP2;P2;SDS_P1;SDS_P2;PMS_P1;PMS_P2;Temp;Humidity;BMP_temperature;BMP_pressure;BME280_temperature;BME280_humidity;BME280_pressure;Samples;Min_cycle;Max_cycle;Signal;HPM_P1;HPM_P2
2022/01/07 00:01:35;;;;;;;14.05;4.75;;;;;;;;;;5050187;28;20032;-73
2022/01/07 00:04:01;;;;;;;17.77;5.28;;;;;;;;;;5074086;28;20474;-75
2022/01/07 00:06:27;;;;;;;17.67;6.95;;;;;;;;;;5058242;28;20028;-72
2022/01/07 00:08:53;;;;;;;20.35;6.53;;;;;;;;;;5066275;28;20542;-74
2022/01/07 00:11:19;;;;;;;17.17;5.22;;;;;;;;;;5063846;28;20044;-74
2022/01/07 00:13:45;;;;;;;14.27;4.80;;;;;;;;;;5060429;28;20063;-73
2022/01/07 00:16:11;;;;;;;13.75;4.22;;;;;;;;;;5073988;28;20028;-73
2022/01/07 00:18:39;;;;;;;8.32;3.67;;;;;;;;;;5057722;28;20087;-73
2022/01/07 00:21:05;;;;;;;24.17;7.10;;;;;;;;;;5064327;28;20561;-73
2022/01/07 00:23:31;;;;;;;7.60;2.60;;;;;;;;;;5064245;28;20437;-74
2022/01/07 00:25:57;;;;;;;12.00;3.53;;;;;;;;;;5057189;28;20035;-74
2022/01/07 00:28:23;;;;;;;13.68;4.57;;;;;;;;;;5069084;28;20096;-73
2022/01/07 00:30:49;;;;;;;8.75;3.40;;;;;;;;;;5058953;28;20032;-73
2022/01/07 00:33:16;;;;;;;7.75;1.90;;;;;;;;;;5060734;28;20029;-73
2022/01/07 00:35:42;;;;;;;10.75;3.45;;;;;;;;;;5066247;28;20107;-73
2022/01/07 00:38:08;;;;;;;13.77;4.25;;;;;;;;;;5054257;28;20051;-73
2022/01/07 00:40:34;;;;;;;12.07;3.03;;;;;;;;;;5068309;28;20033;-73
2022/01/07 00:43:00;;;;;;;6.57;2.10;;;;;;;;;;5059582;28;20107;-74
2022/01/07 00:45:26;;;;;;;6.75;2.80;;;;;;;;;;5054569;28;20470;-74
2022/01/07 00:47:53;;;;;;;8.05;2.90;;;;;;;;;;5072337;28;20425;-73
2022/01/07 00:50:20;;;;;;;4.22;1.38;;;;;;;;;;5060651;28;20056;-74
2022/01/07 00:52:47;;;;;;;4.63;1.50;;;;;;;;;;5065468;28;20071;-73
2022/01/07 00:55:13;;;;;;;3.75;1.67;;;;;;;;;;5061630;28;20033;-74
2022/01/07 00:57:39;;;;;;;3.40;1.40;;;;;;;;;;5058753;28;20024;-74
2022/01/07 01:00:06;;;;;;;10.27;2.92;;;;;;;;;;5068599;28;20394;-74
2022/01/07 01:02:32;;;;;;;4.70;1.60;;;;;;;;;;5056213;28;20027;-74
2022/01/07 01:04:58;;;;;;;7.32;2.40;;;;;;;;;;5063363;28;20394;-74
2022/01/07 01:07:24;;;;;;;7.20;2.75;;;;;;;;;;5062802;28;20051;-74
2022/01/07 01:09:50;;;;;;;3.50;1.45;;;;;;;;;;5053929;28;20039;-74
2022/01/07 01:12:16;;;;;;;7.80;3.15;;;;;;;;;;5069996;28;20489;-74
2022/01/07 01:14:42;;;;;;;12.07;4.50;;;;;;;;;;5052002;28;20406;-75
2022/01/07 01:17:09;;;;;;;13.25;3.75;;;;;;;;;;5052553;28;20033;-74
2022/01/07 01:19:35;;;;;;;6.40;1.85;;;;;;;;;;5067566;28;20111;-74
2022/01/07 01:22:01;;;;;;;7.30;2.75;;;;;;;;;;5071595;28;20063;-74
2022/01/07 01:24:27;;;;;;;6.43;1.70;;;;;;;;;;5052426;28;20020;-74
2022/01/07 01:26:53;;;;;;;2.05;1.20;;;;;;;;;;5071741;28;20035;-74
2022/01/07 01:29:21;;;;;;;8.55;2.35;;;;;;;;;;5060898;28;20057;-74
2022/01/07 01:31:47;;;;;;;7.85;2.45;;;;;;;;;;5065764;28;20522;-74
2022/01/07 01:34:13;;;;;;;7.20;1.67;;;;;;;;;;5069648;28;20017;-74
2022/01/07 01:36:39;;;;;;;3.47;1.27;;;;;;;;;;5056266;28;20493;-74
2022/01/07 01:39:05;;;;;;;4.47;1.20;;;;;;;;;;5053526;28;20028;-73
2022/01/07 01:41:31;;;;;;;7.50;2.70;;;;;;;;;;5071561;28;20029;-73
2022/01/07 01:43:58;;;;;;;6.15;1.42;;;;;;;;;;5052611;28;20060;-74
2022/01/07 01:46:24;;;;;;;7.70;1.45;;;;;;;;;;5050199;28;20017;-74
2022/01/07 01:48:50;;;;;;;3.88;1.00;;;;;;;;;;5057583;28;20028;-74
2022/01/07 01:51:16;;;;;;;5.20;1.45;;;;;;;;;;5053395;28;20161;-74
2022/01/07 01:53:42;;;;;;;7.70;2.60;;;;;;;;;;5079525;22;20521;-71
2022/01/07 01:56:08;;;;;;;4.93;1.67;;;;;;;;;;5051943;28;20036;-71
2022/01/07 01:58:34;;;;;;;9.40;3.03;;;;;;;;;;5047402;28;20072;-71
2022/01/07 02:01:00;;;;;;;19.33;6.07;;;;;;;;;;5031733;28;20467;-71
2022/01/07 02:03:26;;;;;;;8.88;2.83;;;;;;;;;;5042498;28;20066;-70
2022/01/07 02:05:53;;;;;;;13.73;5.03;;;;;;;;;;5016476;28;20435;-71
2022/01/07 02:08:18;;;;;;;12.15;3.03;;;;;;;;;;5027656;28;20384;-71
2022/01/07 02:10:44;;;;;;;11.23;3.28;;;;;;;;;;5017412;28;20029;-71
2022/01/07 02:13:10;;;;;;;5.47;1.60;;;;;;;;;;5021443;28;20026;-71
2022/01/07 02:15:37;;;;;;;12.75;3.70;;;;;;;;;;5024052;28;20060;-71
2022/01/07 02:18:04;;;;;;;4.32;2.08;;;;;;;;;;5014859;28;20385;-71
2022/01/07 02:20:30;;;;;;;10.15;1.95;;;;;;;;;;5027331;28;20058;-70
2022/01/07 02:22:57;;;;;;;7.90;2.65;;;;;;;;;;5018024;28;20026;-70
2022/01/07 02:25:23;;;;;;;11.65;4.57;;;;;;;;;;5020405;28;20026;-70
2022/01/07 02:27:49;;;;;;;6.10;1.27;;;;;;;;;;5030040;28;20083;-70
2022/01/07 02:30:20;;;;;;;7.43;2.60;;;;;;;;;;5014783;28;20488;-71
2022/01/07 02:32:46;;;;;;;4.63;1.85;;;;;;;;;;5024743;28;20022;-70
2022/01/07 02:35:13;;;;;;;4.45;1.70;;;;;;;;;;5020739;28;20105;-70
2022/01/07 02:37:39;;;;;;;12.48;2.30;;;;;;;;;;5017770;28;20068;-70
2022/01/07 02:40:06;;;;;;;3.20;1.15;;;;;;;;;;5027476;28;20048;-70
2022/01/07 02:42:32;;;;;;;3.78;1.27;;;;;;;;;;5015052;28;20049;-71
2022/01/07 02:44:58;;;;;;;4.78;1.20;;;;;;;;;;5022885;28;20022;-71
2022/01/07 02:47:27;;;;;;;8.55;1.75;;;;;;;;;;5022425;28;20483;-70
2022/01/07 02:49:53;;;;;;;3.70;0.82;;;;;;;;;;5015798;28;20026;-70
2022/01/07 02:52:19;;;;;;;3.58;1.02;;;;;;;;;;5026193;28;20112;-69
2022/01/07 02:54:45;;;;;;;2.53;0.88;;;;;;;;;;5016048;28;20037;-70
2022/01/07 02:57:11;;;;;;;2.78;1.13;;;;;;;;;;5024179;28;20105;-70
2022/01/07 02:59:37;;;;;;;3.92;1.15;;;;;;;;;;5015022;28;20480;-70
2022/01/07 03:02:03;;;;;;;3.90;1.02;;;;;;;;;;5031228;28;20475;-70
2022/01/07 03:04:29;;;;;;;5.00;2.08;;;;;;;;;;5017348;28;20479;-70
2022/01/07 03:06:55;;;;;;;4.78;1.13;;;;;;;;;;5034426;28;20104;-70
2022/01/07 03:09:21;;;;;;;5.97;1.73;;;;;;;;;;5022149;28;20125;-70
2022/01/07 03:11:47;;;;;;;4.25;1.23;;;;;;;;;;5028767;28;20088;-70
2022/01/07 03:14:13;;;;;;;6.90;1.00;;;;;;;;;;5017041;28;20035;-70
2022/01/07 03:16:40;;;;;;;9.95;2.90;;;;;;;;;;5028955;28;20101;-70
2022/01/07 03:19:06;;;;;;;7.45;2.50;;;;;;;;;;5022824;28;20029;-70
2022/01/07 03:21:32;;;;;;;7.20;1.65;;;;;;;;;;5022067;28;20030;-68
2022/01/07 03:23:58;;;;;;;4.93;1.90;;;;;;;;;;5017484;28;20041;-70
2022/01/07 03:26:24;;;;;;;1.85;1.02;;;;;;;;;;5030633;28;20025;-70
2022/01/07 03:28:50;;;;;;;4.38;1.35;;;;;;;;;;5020626;28;20033;-70
2022/01/07 03:31:16;;;;;;;9.38;2.28;;;;;;;;;;5024471;28;20026;-72
2022/01/07 03:33:42;;;;;;;5.80;2.50;;;;;;;;;;5026805;28;20025;-71
2022/01/07 03:36:08;;;;;;;8.45;2.42;;;;;;;;;;5033309;28;20093;-71
2022/01/07 03:38:34;;;;;;;5.97;1.92;;;;;;;;;;5022954;28;20040;-70
2022/01/07 03:41:00;;;;;;;13.90;4.32;;;;;;;;;;5033916;28;20026;-72
2022/01/07 03:43:26;;;;;;;14.40;3.25;;;;;;;;;;5021697;28;20113;-70
2022/01/07 03:45:52;;;;;;;7.60;2.78;;;;;;;;;;5029169;28;20022;-71
2022/01/07 03:48:18;;;;;;;9.70;2.72;;;;;;;;;;5017579;28;20060;-71
2022/01/07 03:50:44;;;;;;;9.02;2.60;;;;;;;;;;5027851;28;20053;-70
2022/01/07 03:53:10;;;;;;;7.47;3.33;;;;;;;;;;5022464;28;20095;-72
2022/01/07 03:55:36;;;;;;;8.48;4.00;;;;;;;;;;5020741;28;20482;-71
2022/01/07 03:58:02;;;;;;;8.88;4.60;;;;;;;;;;5030066;28;20113;-71
2022/01/07 04:00:34;;;;;;;8.10;2.97;;;;;;;;;;5029663;28;20022;-71
2022/01/07 04:03:01;;;;;;;7.80;3.97;;;;;;;;;;5021107;28;20029;-71
2022/01/07 04:05:27;;;;;;;10.00;3.35;;;;;;;;;;5033569;28;20049;-71
2022/01/07 04:07:53;;;;;;;12.55;5.50;;;;;;;;;;5032330;28;20038;-72
2022/01/07 04:10:19;;;;;;;7.85;3.45;;;;;;;;;;5016611;28;20040;-70
2022/01/07 04:12:45;;;;;;;7.03;2.88;;;;;;;;;;5026618;28;20246;-69
2022/01/07 04:15:11;;;;;;;5.35;3.10;;;;;;;;;;5013193;28;20554;-71
2022/01/07 04:17:38;;;;;;;12.63;2.63;;;;;;;;;;5026242;28;20544;-70
2022/01/07 04:20:06;;;;;;;12.20;4.03;;;;;;;;;;5016659;28;20033;-71
2022/01/07 04:22:35;;;;;;;10.00;3.42;;;;;;;;;;5028780;28;20399;-71
2022/01/07 04:25:02;;;;;;;9.95;3.10;;;;;;;;;;5032251;28;20387;-70
2022/01/07 04:27:28;;;;;;;12.48;4.22;;;;;;;;;;5021081;28;20037;-70
2022/01/07 04:29:54;;;;;;;15.38;4.50;;;;;;;;;;5028464;28;20029;-71
2022/01/07 04:32:20;;;;;;;8.82;4.00;;;;;;;;;;5016816;28;20036;-70
2022/01/07 04:34:46;;;;;;;7.30;3.55;;;;;;;;;;5026619;28;20080;-70
2022/01/07 04:37:12;;;;;;;9.32;2.97;;;;;;;;;;5012985;28;20104;-72
2022/01/07 04:39:38;;;;;;;11.57;3.95;;;;;;;;;;5025950;28;20033;-70
2022/01/07 04:42:04;;;;;;;9.98;4.05;;;;;;;;;;5015895;28;20030;-71
2022/01/07 04:44:30;;;;;;;5.63;3.30;;;;;;;;;;5014190;28;20177;-70
2022/01/07 04:46:56;;;;;;;6.72;3.40;;;;;;;;;;5025291;28;20484;-68
2022/01/07 04:49:22;;;;;;;13.10;4.90;;;;;;;;;;5023655;28;20132;-70
2022/01/07 04:51:48;;;;;;;10.65;4.35;;;;;;;;;;5016750;28;20542;-69
2022/01/07 04:54:14;;;;;;;8.68;4.07;;;;;;;;;;5027798;28;20039;-69
2022/01/07 04:56:40;;;;;;;13.73;3.90;;;;;;;;;;5012249;28;20038;-71
2022/01/07 04:59:06;;;;;;;13.15;3.88;;;;;;;;;;5021368;28;20476;-70
2022/01/07 05:01:32;;;;;;;10.05;3.47;;;;;;;;;;5020191;28;20030;-69
2022/01/07 05:03:58;;;;;;;6.45;3.47;;;;;;;;;;5027350;28;20033;-70
2022/01/07 05:09:08;;;;;;;7.75;3.40;;;;;;;;;;5022981;28;20075;-70
2022/01/07 05:11:34;;;;;;;9.65;3.25;;;;;;;;;;5024992;28;20547;-70
2022/01/07 05:14:00;;;;;;;9.65;3.35;;;;;;;;;;5014006;28;20073;-71
2022/01/07 05:16:28;;;;;;;6.85;3.33;;;;;;;;;;5028406;28;20476;-70
2022/01/07 05:18:54;;;;;;;10.55;4.13;;;;;;;;;;5019144;28;20030;-71
2022/01/07 05:21:21;;;;;;;13.77;4.35;;;;;;;;;;5021338;28;20087;-70
2022/01/07 05:23:47;;;;;;;10.27;4.22;;;;;;;;;;5015573;28;20072;-71
2022/01/07 05:26:12;;;;;;;7.47;3.53;;;;;;;;;;5028524;28;20418;-70
2022/01/07 05:28:38;;;;;;;11.25;5.88;;;;;;;;;;5016808;28;20071;-69
2022/01/07 05:31:04;;;;;;;14.32;5.10;;;;;;;;;;5023380;28;20403;-71
2022/01/07 05:33:31;;;;;;;14.63;5.15;;;;;;;;;;5023221;28;20033;-71
2022/01/07 05:35:57;;;;;;;10.02;4.18;;;;;;;;;;5016154;28;20026;-71
2022/01/07 05:38:22;;;;;;;8.82;4.25;;;;;;;;;;5028175;28;20037;-72
2022/01/07 05:40:48;;;;;;;11.77;4.63;;;;;;;;;;5018280;28;20040;-71
2022/01/07 05:43:15;;;;;;;14.43;4.97;;;;;;;;;;5021177;28;20061;-71
2022/01/07 05:45:44;;;;;;;7.25;4.25;;;;;;;;;;5025296;28;20106;-70
2022/01/07 05:48:10;;;;;;;13.93;5.68;;;;;;;;;;5013696;28;20035;-70
2022/01/07 05:50:36;;;;;;;10.15;5.22;;;;;;;;;;5026584;28;20026;-71
2022/01/07 05:53:02;;;;;;;11.07;4.63;;;;;;;;;;5019097;28;20025;-72
2022/01/07 05:55:28;;;;;;;9.10;4.40;;;;;;;;;;5019427;28;20038;-71
2022/01/07 05:57:54;;;;;;;13.82;4.85;;;;;;;;;;5027010;28;20025;-71
2022/01/07 06:00:20;;;;;;;12.38;5.43;;;;;;;;;;5028949;28;20072;-71
2022/01/07 06:02:46;;;;;;;11.95;5.80;;;;;;;;;;5017881;28;20341;-71
2022/01/07 06:05:12;;;;;;;15.32;6.70;;;;;;;;;;5031569;28;20045;-71
2022/01/07 06:07:38;;;;;;;10.13;4.93;;;;;;;;;;5018691;28;20030;-71
2022/01/07 06:10:05;;;;;;;12.68;5.90;;;;;;;;;;5027418;28;20030;-71
2022/01/07 06:12:31;;;;;;;20.27;5.82;;;;;;;;;;5015472;28;20028;-72
2022/01/07 06:14:58;;;;;;;10.52;4.90;;;;;;;;;;5023045;28;20547;-71
2022/01/07 06:17:24;;;;;;;15.55;5.97;;;;;;;;;;5011373;28;20550;-70
2022/01/07 06:19:50;;;;;;;11.38;4.93;;;;;;;;;;5025976;28;20025;-70
2022/01/07 06:22:16;;;;;;;17.55;6.13;;;;;;;;;;5013093;28;20088;-70
2022/01/07 06:24:42;;;;;;;10.07;5.38;;;;;;;;;;5027939;28;20569;-72
2022/01/07 06:27:08;;;;;;;15.75;5.50;;;;;;;;;;5021881;28;20092;-71
2022/01/07 06:29:34;;;;;;;12.48;6.28;;;;;;;;;;5023656;28;20030;-71
2022/01/07 06:32:00;;;;;;;14.73;6.15;;;;;;;;;;5017087;28;20034;-72
2022/01/07 06:34:26;;;;;;;12.45;6.15;;;;;;;;;;5030270;28;20095;-71
2022/01/07 06:36:52;;;;;;;16.20;7.63;;;;;;;;;;5021667;28;20459;-71
2022/01/07 06:39:19;;;;;;;16.20;6.70;;;;;;;;;;5024506;28;20025;-71
2022/01/07 06:41:50;;;;;;;15.18;5.85;;;;;;;;;;5014977;28;20022;-71
2022/01/07 06:44:16;;;;;;;12.68;6.53;;;;;;;;;;5016162;28;20037;-71
2022/01/07 06:46:42;;;;;;;11.40;6.03;;;;;;;;;;5029050;28;20037;-72
2022/01/07 06:49:08;;;;;;;12.60;5.80;;;;;;;;;;5024010;28;20036;-71
2022/01/07 06:51:34;;;;;;;14.32;6.35;;;;;;;;;;5022002;28;20380;-70
2022/01/07 06:54:00;;;;;;;12.65;5.95;;;;;;;;;;5024862;28;20034;-71
2022/01/07 06:56:28;;;;;;;13.15;5.82;;;;;;;;;;5017863;28;20025;-71
2022/01/07 06:58:54;;;;;;;13.73;6.25;;;;;;;;;;5034871;28;20646;-70
2022/01/07 07:01:20;;;;;;;15.43;7.40;;;;;;;;;;5025710;28;20040;-71
2022/01/07 07:03:46;;;;;;;13.93;6.88;;;;;;;;;;5024504;28;20026;-71
2022/01/07 07:06:12;;;;;;;15.00;6.55;;;;;;;;;;5025538;28;20035;-71
2022/01/07 07:08:38;;;;;;;12.60;6.23;;;;;;;;;;5025839;28;20026;-70
2022/01/07 07:11:04;;;;;;;17.85;8.07;;;;;;;;;;5024909;28;20033;-70
2022/01/07 07:13:30;;;;;;;14.55;6.20;;;;;;;;;;5021253;28;20102;-71
2022/01/07 07:15:56;;;;;;;14.15;7.35;;;;;;;;;;5029400;28;20021;-72
2022/01/07 07:18:22;;;;;;;13.20;7.35;;;;;;;;;;5017321;28;20025;-71
2022/01/07 07:20:48;;;;;;;18.98;7.82;;;;;;;;;;5034334;28;20033;-71
2022/01/07 07:23:14;;;;;;;11.43;6.68;;;;;;;;;;5028024;28;20459;-71
2022/01/07 07:25:40;;;;;;;12.38;7.05;;;;;;;;;;5027280;28;20064;-71
2022/01/07 07:28:06;;;;;;;16.80;7.68;;;;;;;;;;5017158;28;20053;-71
2022/01/07 07:30:36;;;;;;;12.68;6.93;;;;;;;;;;5029492;28;20503;-72
2022/01/07 07:33:29;;;;;;;8.80;4.97;;;;;;;;;;5021766;28;20028;-70
2022/01/07 07:38:34;;;;;;;17.92;7.25;;;;;;;;;;5018121;28;20610;-70
2022/01/07 07:41:00;;;;;;;14.43;7.22;;;;;;;;;;5025316;28;20117;-68
2022/01/07 07:43:26;;;;;;;18.95;8.02;;;;;;;;;;5024885;28;20097;-70
2022/01/07 07:45:53;;;;;;;13.57;7.38;;;;;;;;;;5018833;28;20403;-70
2022/01/07 07:48:19;;;;;;;17.23;7.50;;;;;;;;;;5029816;28;20437;-71
2022/01/07 07:50:45;;;;;;;18.73;9.02;;;;;;;;;;5019484;28;20034;-70
2022/01/07 07:53:11;;;;;;;16.95;8.57;;;;;;;;;;5022906;28;20030;-70
2022/01/07 07:55:37;;;;;;;14.02;7.13;;;;;;;;;;5066534;22;20059;-75
2022/01/07 07:58:03;;;;;;;13.50;7.43;;;;;;;;;;5033568;28;20112;-75
2022/01/07 08:00:30;;;;;;;17.90;7.85;;;;;;;;;;5047903;28;20026;-76
2022/01/07 08:02:57;;;;;;;17.38;7.60;;;;;;;;;;5039785;28;20033;-76
2022/01/07 08:05:23;;;;;;;20.30;7.78;;;;;;;;;;5042190;28;20052;-76
2022/01/07 08:07:49;;;;;;;19.63;9.55;;;;;;;;;;5047870;28;20470;-76
2022/01/07 08:10:22;;;;;;;16.63;8.93;;;;;;;;;;5035691;28;20115;-75
2022/01/07 08:18:01;;;;;;;16.08;8.70;;;;;;;;;;5036637;28;20524;-76
2022/01/07 08:20:27;;;;;;;16.50;7.43;;;;;;;;;;5018244;28;20028;-76
2022/01/07 08:22:53;;;;;;;15.43;8.35;;;;;;;;;;5048089;28;20029;-76
2022/01/07 08:25:20;;;;;;;15.13;8.10;;;;;;;;;;5034547;28;20055;-76
2022/01/07 08:27:45;;;;;;;15.38;7.82;;;;;;;;;;5038584;28;20044;-76
2022/01/07 08:30:16;;;;;;;17.13;8.63;;;;;;;;;;5032580;28;20029;-76
2022/01/07 08:35:28;;;;;;;16.00;7.88;;;;;;;;;;5052972;28;20132;-76
2022/01/07 08:37:54;;;;;;;16.80;8.10;;;;;;;;;;5037155;28;20052;-77
2022/01/07 08:40:20;;;;;;;19.77;8.27;;;;;;;;;;5051011;28;20406;-75
2022/01/07 08:42:46;;;;;;;13.43;7.82;;;;;;;;;;5052739;28;20070;-74
2022/01/07 08:45:12;;;;;;;14.88;8.18;;;;;;;;;;5058548;28;20086;-74
2022/01/07 08:47:38;;;;;;;21.20;8.80;;;;;;;;;;5053620;28;20032;-71
2022/01/07 08:50:04;;;;;;;16.33;8.65;;;;;;;;;;5055446;28;20021;-73
2022/01/07 08:52:30;;;;;;;15.10;7.95;;;;;;;;;;5047934;28;20026;-73
2022/01/07 08:54:56;;;;;;;18.30;8.60;;;;;;;;;;5038244;28;20508;-75
2022/01/07 08:57:22;;;;;;;16.33;8.20;;;;;;;;;;5040593;28;20510;-75
2022/01/07 08:59:49;;;;;;;17.00;8.07;;;;;;;;;;5046416;28;20021;-74
2022/01/07 09:02:15;;;;;;;16.45;7.68;;;;;;;;;;5050195;28;20466;-73
2022/01/07 09:04:42;;;;;;;19.70;8.20;;;;;;;;;;5036354;28;20028;-74
2022/01/07 09:07:08;;;;;;;13.43;8.32;;;;;;;;;;5043037;28;20087;-75
2022/01/07 09:09:34;;;;;;;13.88;7.28;;;;;;;;;;5044167;28;20037;-74
2022/01/07 09:12:00;;;;;;;17.75;8.63;;;;;;;;;;5033854;28;20028;-74
2022/01/07 09:14:26;;;;;;;13.70;7.82;;;;;;;;;;5040398;28;20021;-75
2022/01/07 09:16:52;;;;;;;15.68;8.32;;;;;;;;;;5051956;28;20488;-74
2022/01/07 09:19:18;;;;;;;19.17;10.32;;;;;;;;;;5041198;28;20109;-74
2022/01/07 09:21:44;;;;;;;26.60;9.57;;;;;;;;;;5045856;28;20558;-72
2022/01/07 09:24:10;;;;;;;15.40;8.00;;;;;;;;;;5046472;28;20202;-75
2022/01/07 09:26:36;;;;;;;76.10;29.80;;;;;;;;;;5046375;28;20143;-72
2022/01/07 09:29:02;;;;;;;19.27;9.95;;;;;;;;;;5039144;28;20025;-72
2022/01/07 09:31:28;;;;;;;17.00;8.80;;;;;;;;;;5049674;28;20500;-73
2022/01/07 09:33:54;;;;;;;15.38;8.70;;;;;;;;;;5049120;28;20028;-73
2022/01/07 09:36:20;;;;;;;15.68;8.45;;;;;;;;;;5048793;28;20024;-73
2022/01/07 09:38:46;;;;;;;18.58;9.23;;;;;;;;;;5029537;28;20028;-73
2022/01/07 09:41:12;;;;;;;19.75;7.72;;;;;;;;;;5047674;28;20112;-72
2022/01/07 09:43:38;;;;;;;13.82;6.57;;;;;;;;;;5029022;28;20025;-73
2022/01/07 09:46:04;;;;;;;26.17;9.48;;;;;;;;;;5048909;28;20641;-73
2022/01/07 09:48:30;;;;;;;9.60;5.25;;;;;;;;;;5060567;28;20025;-73
2022/01/07 09:50:56;;;;;;;9.90;4.97;;;;;;;;;;5055148;28;20112;-73
2022/01/07 09:53:23;;;;;;;9.63;4.18;;;;;;;;;;5049261;28;20074;-72
2022/01/07 09:55:49;;;;;;;17.42;7.07;;;;;;;;;;5050005;28;20027;-72
2022/01/07 09:58:15;;;;;;;9.35;3.38;;;;;;;;;;5050143;28;20036;-73
2022/01/07 10:00:42;;;;;;;8.35;3.78;;;;;;;;;;5050585;28;20108;-73
2022/01/07 10:03:09;;;;;;;10.77;3.90;;;;;;;;;;5050554;28;20029;-73
2022/01/07 10:05:40;;;;;;;11.73;5.30;;;;;;;;;;5050588;28;20067;-73
2022/01/07 10:08:19;;;;;;;20.95;8.35;;;;;;;;;;5045052;28;20494;-73
2022/01/07 10:10:45;;;;;;;7.60;3.03;;;;;;;;;;5013623;28;20513;-73
2022/01/07 10:13:11;;;;;;;10.32;4.78;;;;;;;;;;5030756;28;20021;-72
2022/01/07 10:15:38;;;;;;;9.18;3.70;;;;;;;;;;5013065;28;20033;-73
2022/01/07 10:18:06;;;;;;;8.02;4.20;;;;;;;;;;5013299;28;20528;-73
2022/01/07 10:20:34;;;;;;;10.60;4.68;;;;;;;;;;5013370;28;20048;-73
2022/01/07 10:23:07;;;;;;;35.85;13.30;;;;;;;;;;5012918;28;20088;-71
2022/01/07 10:25:34;;;;;;;8.25;4.05;;;;;;;;;;5031296;28;20064;-73
2022/01/07 10:28:01;;;;;;;34.58;12.95;;;;;;;;;;5031583;28;20068;-72
2022/01/07 10:30:27;;;;;;;16.75;7.50;;;;;;;;;;5031571;28;20033;-72
2022/01/07 10:32:56;;;;;;;9.32;3.45;;;;;;;;;;5031045;28;20056;-72
2022/01/07 10:35:23;;;;;;;30.30;12.00;;;;;;;;;;5031153;28;20013;-72
2022/01/07 10:38:03;;;;;;;24.90;9.52;;;;;;;;;;5031428;28;20026;-72
2022/01/07 10:40:30;;;;;;;21.88;8.02;;;;;;;;;;5035171;28;20033;-72
2022/01/07 10:43:16;;;;;;;10.40;3.92;;;;;;;;;;5050408;28;20150;-72
2022/01/07 10:45:50;;;;;;;23.85;8.05;;;;;;;;;;5038906;28;20371;-73
2022/01/07 10:48:16;;;;;;;5.40;3.22;;;;;;;;;;5047878;28;20066;-73
2022/01/07 10:50:46;;;;;;;9.20;4.32;;;;;;;;;;5071261;28;20035;-73
2022/01/07 10:53:15;;;;;;;6.88;3.30;;;;;;;;;;5052359;28;20023;-72
2022/01/07 10:55:56;;;;;;;13.10;4.65;;;;;;;;;;5070669;28;20028;-72
2022/01/07 10:58:22;;;;;;;24.77;9.13;;;;;;;;;;5070690;28;20029;-73
2022/01/07 11:00:48;;;;;;;16.00;5.57;;;;;;;;;;5070900;28;20029;-72
2022/01/07 11:03:14;;;;;;;8.43;3.67;;;;;;;;;;5070270;28;20063;-73
2022/01/07 11:05:41;;;;;;;7.18;3.45;;;;;;;;;;5070518;28;20032;-72
2022/01/07 11:08:07;;;;;;;5.50;2.90;;;;;;;;;;5070536;28;20066;-73
2022/01/07 11:10:34;;;;;;;7.93;3.75;;;;;;;;;;5071048;28;20377;-73
2022/01/07 11:13:00;;;;;;;7.38;3.20;;;;;;;;;;5070053;28;20032;-72
2022/01/07 11:15:26;;;;;;;7.53;3.47;;;;;;;;;;5069638;28;20033;-73
2022/01/07 11:17:52;;;;;;;7.70;3.80;;;;;;;;;;5071046;28;20039;-73
2022/01/07 11:20:24;;;;;;;12.73;4.88;;;;;;;;;;5071735;28;20033;-72
2022/01/07 11:22:50;;;;;;;12.82;4.93;;;;;;;;;;5058636;28;20017;-73
2022/01/07 11:25:16;;;;;;;8.60;3.85;;;;;;;;;;5063673;28;20020;-72
2022/01/07 11:27:50;;;;;;;8.60;4.25;;;;;;;;;;5074052;28;20017;-74
2022/01/07 11:30:22;;;;;;;11.95;5.15;;;;;;;;;;5039865;28;20120;-73
2022/01/07 11:32:48;;;;;;;14.95;5.97;;;;;;;;;;5052824;28;20175;-71
2022/01/07 11:35:20;;;;;;;13.85;4.75;;;;;;;;;;5034611;28;20037;-72
2022/01/07 11:37:46;;;;;;;20.45;8.55;;;;;;;;;;5059369;28;20377;-73
2022/01/07 11:40:32;;;;;;;10.88;4.80;;;;;;;;;;5072040;28;20123;-73
2022/01/07 11:42:58;;;;;;;15.65;6.82;;;;;;;;;;5063939;28;20450;-72
2022/01/07 11:45:27;;;;;;;14.98;4.65;;;;;;;;;;5053980;28;20028;-72
2022/01/07 11:47:53;;;;;;;6.93;4.25;;;;;;;;;;5071993;28;20039;-73
2022/01/07 11:50:19;;;;;;;6.72;4.18;;;;;;;;;;5072388;28;20068;-73
2022/01/07 11:52:57;;;;;;;9.10;4.65;;;;;;;;;;5073302;28;20466;-71
2022/01/07 11:55:33;;;;;;;8.85;3.85;;;;;;;;;;5061145;28;20036;-73
2022/01/07 11:58:03;;;;;;;10.93;4.18;;;;;;;;;;5053770;28;20025;-72
2022/01/07 12:00:48;;;;;;;13.07;5.90;;;;;;;;;;5052310;28;20040;-71
2022/01/07 12:03:14;;;;;;;7.47;4.45;;;;;;;;;;5051620;28;20136;-73
2022/01/07 12:05:40;;;;;;;7.82;4.30;;;;;;;;;;5053480;28;20065;-72
2022/01/07 12:08:06;;;;;;;13.35;4.80;;;;;;;;;;5052010;28;20055;-72
2022/01/07 12:10:32;;;;;;;9.48;4.72;;;;;;;;;;5052076;28;20047;-73
2022/01/07 12:13:00;;;;;;;7.95;4.95;;;;;;;;;;5052641;28;20514;-72
2022/01/07 12:15:26;;;;;;;9.93;4.22;;;;;;;;;;5052335;28;20045;-72
2022/01/07 12:17:55;;;;;;;13.13;4.85;;;;;;;;;;5034843;28;20021;-72
2022/01/07 12:20:29;;;;;;;11.63;5.65;;;;;;;;;;5052410;28;20074;-72
2022/01/07 12:22:55;;;;;;;9.57;4.88;;;;;;;;;;5060442;28;20070;-72
2022/01/07 12:25:22;;;;;;;12.13;4.47;;;;;;;;;;5055728;28;20032;-72
2022/01/07 12:27:48;;;;;;;15.27;4.32;;;;;;;;;;5072813;28;20417;-72
2022/01/07 12:30:15;;;;;;;9.57;4.78;;;;;;;;;;5064287;28;20055;-72
2022/01/07 12:32:41;;;;;;;11.15;5.50;;;;;;;;;;5052546;28;20043;-73
2022/01/07 12:35:08;;;;;;;9.10;4.47;;;;;;;;;;5052100;28;20024;-72
2022/01/07 12:37:35;;;;;;;6.43;3.78;;;;;;;;;;5053001;28;20531;-73
2022/01/07 12:40:02;;;;;;;6.35;3.70;;;;;;;;;;5070624;28;20020;-72
2022/01/07 12:42:29;;;;;;;7.60;4.70;;;;;;;;;;5072440;28;20099;-72
2022/01/07 12:44:57;;;;;;;9.25;4.75;;;;;;;;;;5071825;28;20542;-72
2022/01/07 12:47:27;;;;;;;10.57;5.03;;;;;;;;;;5072614;28;20029;-72
2022/01/07 12:49:56;;;;;;;9.98;5.10;;;;;;;;;;5072100;28;20032;-72
2022/01/07 12:52:25;;;;;;;8.75;4.80;;;;;;;;;;5071152;28;20048;-73
2022/01/07 12:54:55;;;;;;;12.40;5.22;;;;;;;;;;5071739;28;20115;-73
2022/01/07 12:57:24;;;;;;;13.50;6.32;;;;;;;;;;5072039;28;20058;-73
2022/01/07 13:00:01;;;;;;;10.88;4.63;;;;;;;;;;5072088;28;20036;-73
2022/01/07 13:02:31;;;;;;;7.35;5.13;;;;;;;;;;5054615;28;20511;-72
2022/01/07 13:05:16;;;;;;;10.87;5.90;;;;;;;;;;5071767;28;20020;-72
2022/01/07 13:07:50;;;;;;;8.65;4.65;;;;;;;;;;5072263;28;20496;-73
2022/01/07 13:10:18;;;;;;;9.60;4.82;;;;;;;;;;5072196;28;20025;-73
2022/01/07 13:12:52;;;;;;;12.27;5.57;;;;;;;;;;5053793;28;20016;-71
2022/01/07 13:15:18;;;;;;;8.77;4.55;;;;;;;;;;5071953;28;20025;-73
2022/01/07 13:17:45;;;;;;;9.82;5.15;;;;;;;;;;5055813;28;20025;-72
2022/01/07 13:20:11;;;;;;;12.52;5.13;;;;;;;;;;5052165;28;20397;-72
2022/01/07 13:22:38;;;;;;;11.50;5.65;;;;;;;;;;5052353;28;20035;-72
2022/01/07 13:25:04;;;;;;;10.68;5.07;;;;;;;;;;5051509;28;20106;-72
2022/01/07 13:27:30;;;;;;;9.43;5.00;;;;;;;;;;5051732;28;20475;-72
2022/01/07 13:29:56;;;;;;;12.43;4.93;;;;;;;;;;5051857;28;20032;-72
2022/01/07 13:32:26;;;;;;;10.40;5.50;;;;;;;;;;5051691;28;20017;-72
2022/01/07 13:34:52;;;;;;;9.02;5.45;;;;;;;;;;5033164;28;20021;-73
2022/01/07 13:37:19;;;;;;;10.85;5.63;;;;;;;;;;5051690;28;20021;-73
2022/01/07 13:39:50;;;;;;;15.77;7.00;;;;;;;;;;5051544;28;20151;-72
2022/01/07 13:42:26;;;;;;;8.33;4.70;;;;;;;;;;5033677;28;20032;-73
2022/01/07 13:45:03;;;;;;;9.10;4.75;;;;;;;;;;5050868;28;20453;-73
2022/01/07 13:47:33;;;;;;;12.40;5.32;;;;;;;;;;5034013;28;20025;-72
2022/01/07 13:50:17;;;;;;;7.93;4.18;;;;;;;;;;5051689;28;20029;-72
2022/01/07 13:52:44;;;;;;;7.70;4.15;;;;;;;;;;5050948;28;20028;-73
2022/01/07 13:55:26;;;;;;;8.32;4.43;;;;;;;;;;5065316;22;20127;-69
2022/01/07 13:57:52;;;;;;;9.23;4.82;;;;;;;;;;5029410;28;20057;-69
2022/01/07 14:00:18;;;;;;;10.13;4.63;;;;;;;;;;5029012;28;20518;-69
2022/01/07 14:02:47;;;;;;;10.68;4.93;;;;;;;;;;5024658;28;20041;-66
2022/01/07 14:05:15;;;;;;;10.75;5.10;;;;;;;;;;5021853;28;20131;-67
2022/01/07 14:07:53;;;;;;;8.65;4.70;;;;;;;;;;5020004;28;20059;-69
2022/01/07 14:10:22;;;;;;;8.70;4.28;;;;;;;;;;5029928;28;20480;-69
2022/01/07 14:12:54;;;;;;;11.93;4.60;;;;;;;;;;5013969;28;20033;-69
2022/01/07 14:15:22;;;;;;;9.93;4.38;;;;;;;;;;5011315;28;20482;-69
2022/01/07 14:17:48;;;;;;;9.18;3.90;;;;;;;;;;5011351;28;20030;-67
2022/01/07 14:20:15;;;;;;;10.60;4.32;;;;;;;;;;4993575;28;20037;-69
2022/01/07 14:22:45;;;;;;;6.68;3.38;;;;;;;;;;5011316;28;20022;-66
2022/01/07 14:25:15;;;;;;;6.85;3.85;;;;;;;;;;5011214;28;20040;-69
2022/01/07 14:27:42;;;;;;;7.15;3.90;;;;;;;;;;5011566;28;20034;-68
2022/01/07 14:30:09;;;;;;;6.47;3.45;;;;;;;;;;5010996;28;20514;-68
2022/01/07 14:32:35;;;;;;;7.80;3.97;;;;;;;;;;5010097;28;20033;-68
2022/01/07 14:35:02;;;;;;;8.95;3.72;;;;;;;;;;5010652;28;20064;-68
2022/01/07 14:37:29;;;;;;;7.38;3.70;;;;;;;;;;5018724;28;20028;-69
2022/01/07 14:39:55;;;;;;;7.18;3.55;;;;;;;;;;5029697;28;20486;-69
2022/01/07 14:42:22;;;;;;;6.97;3.70;;;;;;;;;;5030377;28;20030;-69
2022/01/07 14:44:48;;;;;;;8.90;3.80;;;;;;;;;;5030244;28;20022;-69
2022/01/07 14:47:14;;;;;;;11.35;3.70;;;;;;;;;;5028801;28;20034;-68
2022/01/07 14:49:40;;;;;;;8.77;4.00;;;;;;;;;;5019562;28;20439;-67